Terminal Aerodrome Forecast
Issued by NWS Quad Cities IA IL

Home | Current Version | Previous Version | Text Only | Print | Product List | Glossary On
Versions: 1 2 3 4 5 6 7 8 9 10 11 12 13 14 15 16 17
000
FTUS43 KDVN 260500
TAFDBQ
TAF
KDBQ 260520Z 2606/2706 33013KT P6SM BKN025
     FM260800 32008KT P6SM SCT030 BKN200
     FM261500 33012KT P6SM BKN025
     FM261900 32014G21KT P6SM BKN035
     FM270000 33008KT P6SM BKN040=

USA.gov is the U.S. government's official web portal to all federal, state and local government web resources and services.